Time;durP1;ratioP1;P1;durP2;ratioP2;P2;SDS_P1;SDS_P2;PMS_P1;PMS_P2;Temp;Humidity;BMP_temperature;BMP_pressure;BME280_temperature;BME280_humidity;BME280_pressure;Samples;Min_cycle;Max_cycle;Signal;HPM_P1;HPM_P2
2023/04/19 05:16:09;;;;;;;7.60;2.60;;;4.40;99.90;;;;;;5011889;28;20245;-96
2023/04/19 05:18:36;;;;;;;3.87;2.47;;;4.40;99.90;;;;;;5013799;28;20198;-96
2023/04/19 05:21:03;;;;;;;6.03;2.63;;;4.50;99.90;;;;;;5006766;28;20198;-96
2023/04/19 05:23:30;;;;;;;8.97;3.47;;;4.60;99.90;;;;;;4980205;28;20191;-95
2023/04/19 05:25:57;;;;;;;5.40;2.50;;;4.60;99.90;;;;;;4975477;28;20221;-94
2023/04/19 05:28:24;;;;;;;6.00;2.57;;;4.70;99.90;;;;;;4975459;28;20286;-94
2023/04/19 05:30:52;;;;;;;6.57;2.73;;;4.80;99.90;;;;;;4985403;28;20643;-93
2023/04/19 05:33:20;;;;;;;6.23;2.90;;;4.80;99.90;;;;;;4994748;28;20191;-94
2023/04/19 05:35:47;;;;;;;7.37;2.80;;;4.90;99.90;;;;;;4998365;28;20205;-95
2023/04/19 05:38:14;;;;;;;6.50;2.60;;;5.00;70.20;;;;;;4998530;28;20624;-94
2023/04/19 05:40:41;;;;;;;6.97;2.83;;;5.10;1.00;;;;;;4998415;28;20213;-93
2023/04/19 05:43:07;;;;;;;7.97;2.63;;;5.10;1.00;;;;;;4998123;28;20647;-94
2023/04/19 05:45:34;;;;;;;6.87;2.50;;;5.20;1.00;;;;;;4994007;28;20191;-93
2023/04/19 05:48:01;;;;;;;6.00;2.43;;;5.30;1.00;;;;;;4982187;28;20190;-93
2023/04/19 05:50:29;;;;;;;10.13;3.27;;;5.30;1.00;;;;;;4998173;28;20683;-94
2023/04/19 05:52:56;;;;;;;4.80;2.23;;;5.40;1.00;;;;;;4978777;28;20664;-93
2023/04/19 05:55:23;;;;;;;7.63;2.40;;;5.40;1.00;;;;;;4979254;28;20574;-93
2023/04/19 05:57:50;;;;;;;6.70;2.70;;;5.50;1.00;;;;;;4978863;28;20197;-93
2023/04/19 06:00:17;;;;;;;7.30;2.80;;;5.60;1.00;;;;;;4979131;28;20204;-92
2023/04/19 06:02:44;;;;;;;5.00;1.90;;;5.70;1.00;;;;;;4979614;28;20300;-95
2023/04/19 06:05:11;;;;;;;5.30;2.10;;;5.80;99.90;;;;;;4978771;28;20562;-94
2023/04/19 06:07:39;;;;;;;8.93;2.40;;;5.90;99.90;;;;;;4978601;28;20212;-93
2023/04/19 06:10:07;;;;;;;5.40;2.27;;;6.00;99.90;;;;;;4978726;28;20229;-95
2023/04/19 06:12:34;;;;;;;6.33;2.70;;;6.10;99.90;;;;;;4978542;28;20656;-93
2023/04/19 06:15:01;;;;;;;5.07;2.00;;;6.10;82.80;;;;;;4978729;28;20712;-93
2023/04/19 06:17:28;;;;;;;5.50;2.23;;;6.20;99.90;;;;;;4979035;28;20651;-94
2023/04/19 06:19:55;;;;;;;5.63;2.47;;;6.30;1.00;;;;;;4997759;28;20198;-93
2023/04/19 06:22:22;;;;;;;6.33;2.63;;;6.40;1.00;;;;;;4997919;28;20202;-94
2023/04/19 06:24:50;;;;;;;9.17;2.93;;;6.40;1.00;;;;;;4997759;28;20201;-94
2023/04/19 06:27:17;;;;;;;5.80;2.47;;;6.50;1.00;;;;;;4997701;28;20224;-93
2023/04/19 06:29:43;;;;;;;4.07;1.73;;;6.60;1.00;;;;;;4997812;28;20208;-94
2023/04/19 06:32:11;;;;;;;3.37;2.10;;;6.70;1.00;;;;;;4997415;28;20195;-94
2023/04/19 06:34:37;;;;;;;7.80;3.00;;;6.80;99.90;;;;;;4983428;28;20418;-93
2023/04/19 06:37:04;;;;;;;8.77;2.47;;;6.70;1.00;;;;;;4978129;28;20195;-93
2023/04/19 06:39:31;;;;;;;5.77;2.60;;;7.00;99.90;;;;;;4981969;28;20187;-93
2023/04/19 06:41:59;;;;;;;5.67;2.53;;;7.10;99.90;;;;;;4995398;28;20199;-93
2023/04/19 06:44:26;;;;;;;3.60;2.30;;;7.30;1.00;;;;;;4997589;28;20261;-94
2023/04/19 06:46:53;;;;;;;6.20;2.67;;;7.40;99.90;;;;;;4997052;28;20226;-93
2023/04/19 06:49:21;;;;;;;4.87;2.30;;;7.50;1.00;;;;;;4997110;28;20585;-94
2023/04/19 06:51:48;;;;;;;4.97;1.90;;;7.70;99.90;;;;;;4997233;28;20207;-95
2023/04/19 06:54:15;;;;;;;4.57;1.90;;;7.90;1.00;;;;;;4997108;28;20208;-94
2023/04/19 06:56:45;;;;;;;5.43;2.50;;;8.10;1.00;;;;;;4997140;28;20196;-92
2023/04/19 06:59:15;;;;;;;6.90;2.67;;;8.20;99.90;;;;;;4997142;28;20617;-93
2023/04/19 07:01:42;;;;;;;4.50;2.20;;;8.30;99.90;;;;;;4997352;28;20191;-94
2023/04/19 07:04:09;;;;;;;4.43;2.10;;;8.30;99.90;;;;;;4997145;28;20191;-96
2023/04/19 07:06:36;;;;;;;6.93;2.47;;;8.30;1.00;;;;;;4997315;28;20235;-94
2023/04/19 07:09:04;;;;;;;6.53;2.47;;;8.30;1.00;;;;;;4996577;28;20730;-94
2023/04/19 07:11:31;;;;;;;4.60;1.90;;;8.20;99.90;;;;;;4996624;28;20202;-93
2023/04/19 07:13:58;;;;;;;4.70;2.57;;;8.20;99.90;;;;;;4996697;28;20199;-94
2023/04/19 07:16:26;;;;;;;7.53;3.13;;;8.20;63.90;;;;;;4997093;28;20257;-95
2023/04/19 07:18:53;;;;;;;9.43;3.50;;;8.20;57.90;;;;;;4996953;28;20206;-93
2023/04/19 07:21:20;;;;;;;5.87;2.43;;;8.20;1.00;;;;;;4996802;28;20204;-94
2023/04/19 07:23:47;;;;;;;4.63;2.40;;;8.30;1.00;;;;;;4994650;28;20681;-94
2023/04/19 07:26:14;;;;;;;5.17;2.13;;;8.30;96.60;;;;;;4977329;28;20309;-93
2023/04/19 07:28:41;;;;;;;5.57;2.93;;;8.40;1.00;;;;;;4986000;28;20543;-95
2023/04/19 07:31:07;;;;;;;7.47;2.77;;;8.40;1.00;;;;;;4984829;28;20261;-93
2023/04/19 07:33:35;;;;;;;8.00;3.23;;;8.40;99.90;;;;;;4976910;28;20219;-93
2023/04/19 07:36:02;;;;;;;8.00;3.03;;;8.50;99.90;;;;;;4980746;28;20200;-93
2023/04/19 07:38:29;;;;;;;6.30;3.30;;;8.60;1.00;;;;;;4996267;28;20223;-94
2023/04/19 07:40:56;;;;;;;6.77;2.93;;;8.70;1.00;;;;;;4981038;28;20212;-94
2023/04/19 07:43:22;;;;;;;10.93;3.00;;;8.80;1.00;;;;;;4976999;28;20205;-95
2023/04/19 07:45:49;;;;;;;5.47;2.50;;;8.80;1.00;;;;;;4976591;28;20198;-94
2023/04/19 07:48:16;;;;;;;7.93;3.13;;;8.90;1.00;;;;;;4976505;28;20273;-93
2023/04/19 07:50:44;;;;;;;7.23;2.40;;;9.10;1.00;;;;;;4987316;28;20202;-93
2023/04/19 07:53:11;;;;;;;6.67;2.90;;;9.20;99.90;;;;;;4995596;28;20205;-95
2023/04/19 07:55:38;;;;;;;7.47;3.57;;;9.30;99.90;;;;;;4995903;28;20657;-92
2023/04/19 07:58:05;;;;;;;7.33;2.77;;;9.30;99.90;;;;;;4995273;28;20557;-94
2023/04/19 08:00:33;;;;;;;6.77;2.57;;;9.40;1.00;;;;;;4996004;28;20569;-94
2023/04/19 08:03:00;;;;;;;7.07;3.07;;;9.40;1.00;;;;;;4996140;28;20201;-93
2023/04/19 08:05:27;;;;;;;7.10;3.30;;;9.50;1.00;;;;;;4995978;28;20202;-94
2023/04/19 08:07:55;;;;;;;9.30;3.57;;;9.60;1.00;;;;;;4995357;28;20217;-93
2023/04/19 08:10:22;;;;;;;8.53;3.30;;;9.70;1.00;;;;;;4996407;28;20204;-95
2023/04/19 08:12:50;;;;;;;7.77;2.90;;;9.70;1.00;;;;;;4995914;28;20573;-94
2023/04/19 08:15:16;;;;;;;6.33;2.70;;;9.70;1.00;;;;;;4995954;28;20234;-93
2023/04/19 08:17:43;;;;;;;4.77;2.83;;;9.80;99.90;;;;;;4995232;28;20204;-93
2023/04/19 08:20:12;;;;;;;8.70;3.23;;;9.80;1.00;;;;;;4976455;28;20208;-95
2023/04/19 08:22:39;;;;;;;4.50;2.57;;;9.90;99.90;;;;;;4992836;28;20211;-94
2023/04/19 08:25:09;;;;;;;7.77;3.60;;;9.90;99.90;;;;;;4995769;28;20199;-94
2023/04/19 08:27:36;;;;;;;8.53;2.87;;;9.90;99.90;;;;;;4995717;28;20307;-94
2023/04/19 08:30:03;;;;;;;8.07;2.97;;;10.00;99.90;;;;;;4995384;28;20202;-94
2023/04/19 08:32:30;;;;;;;7.37;3.20;;;10.10;99.90;;;;;;4995602;28;20200;-94
2023/04/19 08:34:57;;;;;;;6.50;3.07;;;10.40;99.90;;;;;;4995434;28;20194;-93
2023/04/19 08:37:24;;;;;;;7.47;3.20;;;10.60;1.00;;;;;;4992984;28;20253;-94
2023/04/19 08:39:51;;;;;;;6.17;2.77;;;10.70;1.00;;;;;;4984834;28;20208;-93
2023/04/19 08:42:19;;;;;;;5.67;3.00;;;10.90;1.00;;;;;;4981718;28;20208;-94
2023/04/19 08:44:46;;;;;;;7.93;2.50;;;11.00;1.00;;;;;;4993632;28;20198;-94
2023/04/19 08:47:15;;;;;;;3.67;2.37;;;11.10;1.00;;;;;;4988733;28;20220;-93
2023/04/19 08:49:42;;;;;;;9.73;3.10;;;11.30;1.00;;;;;;4978102;28;20624;-95
2023/04/19 08:52:12;;;;;;;4.83;3.27;;;11.30;1.00;;;;;;4988374;28;20201;-94
2023/04/19 08:54:40;;;;;;;6.57;3.43;;;11.30;1.00;;;;;;4995016;28;20201;-94
2023/04/19 08:57:08;;;;;;;6.13;2.53;;;11.40;99.90;;;;;;4975808;28;20201;-94
2023/04/19 08:59:36;;;;;;;7.70;3.20;;;11.30;99.90;;;;;;4976284;28;20208;-93
2023/04/19 09:02:03;;;;;;;6.20;3.40;;;11.40;99.90;;;;;;4993910;28;20202;-94
2023/04/19 09:04:30;;;;;;;6.73;2.67;;;11.50;99.90;;;;;;4995375;28;20190;-93
2023/04/19 09:06:57;;;;;;;5.03;3.27;;;11.60;99.90;;;;;;4994862;28;20218;-94
2023/04/19 09:09:25;;;;;;;5.60;2.40;;;11.60;99.90;;;;;;4990388;28;20199;-95
2023/04/19 09:11:52;;;;;;;6.50;3.00;;;11.70;99.90;;;;;;4979635;28;20225;-93
2023/04/19 09:14:21;;;;;;;5.00;2.90;;;11.60;49.70;;;;;;4979734;28;20734;-93
2023/04/19 09:16:50;;;;;;;5.17;2.83;;;11.60;34.90;;;;;;4979478;28;20639;-94
2023/04/19 09:19:17;;;;;;;5.47;3.40;;;11.60;41.30;;;;;;4993199;28;20205;-94
2023/04/19 09:21:45;;;;;;;5.57;3.33;;;11.60;11.00;;;;;;4999211;28;20207;-93
2023/04/19 09:24:11;;;;;;;6.87;3.17;;;11.60;73.30;;;;;;4999237;28;20199;-93
2023/04/19 09:26:38;;;;;;;10.00;3.30;;;11.50;25.40;;;;;;4999392;28;20563;-94
2023/04/19 09:29:06;;;;;;;4.20;2.23;;;11.40;78.90;;;;;;4999272;28;20226;-94
2023/04/19 09:31:35;;;;;;;4.47;2.60;;;11.40;13.80;;;;;;4998933;28;20198;-94
2023/04/19 09:34:14;;;;;;;11.43;4.17;;;11.40;3.50;;;;;;4987514;28;20209;-96
2023/04/19 09:36:42;;;;;;;10.33;3.67;;;11.30;1.00;;;;;;4980448;28;20186;-92
2023/04/19 09:39:09;;;;;;;4.67;2.40;;;11.20;1.00;;;;;;4984935;28;20202;-95
2023/04/19 09:41:50;;;;;;;4.20;3.17;;;11.20;1.00;;;;;;4999349;28;20236;-94
2023/04/19 09:44:17;;;;;;;5.60;3.23;;;11.20;1.00;;;;;;5000209;28;20185;-96
2023/04/19 09:46:47;;;;;;;5.87;3.77;;;11.20;1.00;;;;;;4998898;28;20561;-94
2023/04/19 09:49:22;;;;;;;4.67;3.20;;;11.20;38.40;;;;;;4998518;28;20209;-96
2023/04/19 09:51:50;;;;;;;7.00;3.40;;;11.20;33.30;;;;;;4990812;28;20203;-94
2023/04/19 09:54:19;;;;;;;8.83;3.50;;;11.00;83.10;;;;;;4978998;28;20208;-94
2023/04/19 09:56:46;;;;;;;4.57;3.30;;;11.00;90.50;;;;;;4978853;28;20209;-94
2023/04/19 09:59:13;;;;;;;7.67;3.53;;;10.90;99.90;;;;;;4981149;28;20204;-94
2023/04/19 10:01:43;;;;;;;10.83;3.90;;;10.90;99.90;;;;;;4979208;28;20201;-95
2023/04/19 10:04:12;;;;;;;8.33;3.53;;;10.90;99.90;;;;;;4989559;28;20200;-95
2023/04/19 10:06:41;;;;;;;5.23;3.40;;;11.00;99.90;;;;;;4998082;28;20193;-95
2023/04/19 10:09:09;;;;;;;6.17;3.50;;;11.00;99.90;;;;;;4997814;28;20218;-93
2023/04/19 10:11:38;;;;;;;7.30;3.70;;;11.00;99.90;;;;;;4998105;28;20204;-94
2023/04/19 10:14:19;;;;;;;7.47;3.70;;;10.70;99.90;;;;;;4998178;28;20276;-95
2023/04/19 10:16:47;;;;;;;6.77;3.63;;;10.30;99.90;;;;;;4998272;28;20211;-95
2023/04/19 10:19:16;;;;;;;6.57;3.63;;;10.10;1.00;;;;;;4998130;28;20200;-95
2023/04/19 10:21:46;;;;;;;5.60;3.83;;;9.90;96.80;;;;;;5003369;28;20189;-96
2023/04/19 10:24:14;;;;;;;9.57;4.07;;;9.70;68.40;;;;;;4999687;28;20207;-96
2023/04/19 10:27:09;;;;;;;6.87;3.63;;;9.60;1.00;;;;;;4998700;28;20264;-95
2023/04/19 10:29:55;;;;;;;9.07;3.90;;;9.70;1.00;;;;;;4998207;28;20214;-96
2023/04/19 10:32:23;;;;;;;12.93;6.57;;;10.10;1.00;;;;;;4997567;28;20211;-95
2023/04/19 10:34:52;;;;;;;10.77;6.47;;;10.60;1.00;;;;;;4980499;28;20224;-95
2023/04/19 10:37:24;;;;;;;10.10;5.60;;;11.20;1.00;;;;;;4992021;28;20661;-95
2023/04/19 10:39:51;;;;;;;8.23;3.57;;;11.50;1.00;;;;;;4998008;28;20186;-96
2023/04/19 10:42:18;;;;;;;6.77;3.50;;;11.70;1.00;;;;;;4997940;28;20203;-95
2023/04/19 10:45:30;;;;;;;7.17;3.63;;;11.80;1.00;;;;;;4997303;28;20208;-95
2023/04/19 10:47:57;;;;;;;5.80;3.70;;;12.20;1.00;;;;;;4937536;29;20308;-96
2023/04/19 10:50:24;;;;;;;6.43;3.97;;;12.50;99.90;;;;;;4937953;29;20596;-95
2023/04/19 10:52:52;;;;;;;23.77;15.20;;;12.60;99.90;;;;;;4938175;29;20210;-96
2023/04/19 10:55:19;;;;;;;7.50;4.60;;;12.60;96.40;;;;;;4941405;29;20678;-96
2023/04/19 10:58:03;;;;;;;14.87;8.57;;;12.80;69.20;;;;;;4942013;29;20251;-95
2023/04/19 11:00:32;;;;;;;6.87;4.53;;;12.90;99.90;;;;;;4941737;29;20251;-96
2023/04/19 11:02:59;;;;;;;7.07;4.57;;;13.10;1.00;;;;;;4939262;29;20206;-95
2023/04/19 11:05:26;;;;;;;17.47;10.00;;;13.10;1.00;;;;;;4940337;29;20206;-96
2023/04/19 11:07:56;;;;;;;6.47;4.63;;;13.10;1.00;;;;;;4922513;29;20216;-95
2023/04/19 11:10:32;;;;;;;5.50;3.53;;;13.10;1.00;;;;;;4918983;29;20192;-96
2023/04/19 11:12:59;;;;;;;6.47;4.83;;;12.90;1.00;;;;;;4919191;29;20198;-96
2023/04/19 11:15:26;;;;;;;9.83;5.70;;;12.80;1.00;;;;;;4924817;29;20317;-96
2023/04/19 11:17:53;;;;;;;7.83;5.13;;;12.50;1.00;;;;;;4937766;29;20231;-95
2023/04/19 11:20:23;;;;;;;32.47;19.07;;;12.40;38.20;;;;;;4920821;29;20281;-96
2023/04/19 11:22:50;;;;;;;34.60;18.63;;;12.30;99.90;;;;;;4966314;28;20549;-96
2023/04/19 11:25:20;;;;;;;51.83;26.07;;;12.30;99.90;;;;;;4977438;28;20203;-95
2023/04/19 11:27:48;;;;;;;22.23;10.63;;;12.40;99.90;;;;;;4977561;28;20221;-96
2023/04/19 11:30:18;;;;;;;11.13;7.50;;;12.60;99.90;;;;;;4982469;28;20196;-96
2023/04/19 11:32:47;;;;;;;12.00;6.43;;;12.90;99.90;;;;;;4998463;28;20200;-96
2023/04/19 11:35:14;;;;;;;6.60;4.20;;;13.00;91.60;;;;;;5007911;28;20205;-96
2023/04/19 11:37:41;;;;;;;7.17;4.03;;;13.20;1.00;;;;;;4993324;28;20202;-96
2023/04/19 11:40:09;;;;;;;7.93;4.57;;;13.20;1.00;;;;;;4995090;28;20232;-96
2023/04/19 11:42:37;;;;;;;11.00;4.97;;;13.20;1.00;;;;;;4999637;28;20256;-96
2023/04/19 11:45:05;;;;;;;11.47;6.43;;;13.20;1.00;;;;;;5000047;28;20211;-96
2023/04/19 11:47:33;;;;;;;11.80;6.90;;;13.00;1.00;;;;;;4979217;28;20205;-96
2023/04/19 11:50:32;;;;;;;8.83;5.70;;;13.00;1.00;;;;;;4979850;28;20212;-96
2023/04/19 11:52:59;;;;;;;9.30;5.83;;;12.90;1.00;;;;;;4978478;28;20239;-96
2023/04/19 11:55:26;;;;;;;9.70;7.03;;;12.90;1.00;;;;;;4977983;28;20281;-96
2023/04/19 11:57:55;;;;;;;8.33;4.87;;;12.80;1.00;;;;;;4988517;28;20191;-96
2023/04/19 12:00:28;;;;;;;6.37;4.60;;;12.80;1.00;;;;;;4998940;28;20232;-95
2023/04/19 12:02:55;;;;;;;6.57;4.17;;;12.80;1.00;;;;;;4998364;28;20199;-96
2023/04/19 12:05:23;;;;;;;8.10;4.77;;;12.90;1.00;;;;;;4983245;28;20205;-96
2023/04/19 12:08:00;;;;;;;7.00;4.37;;;12.90;1.00;;;;;;4994351;28;20206;-96
2023/04/19 12:10:27;;;;;;;5.93;3.20;;;12.80;1.00;;;;;;4996094;28;20207;-95
2023/04/19 12:12:55;;;;;;;7.43;3.90;;;12.60;1.00;;;;;;4995994;28;20197;-95
2023/04/19 12:15:22;;;;;;;6.97;3.50;;;12.40;1.00;;;;;;4995780;28;20246;-95
2023/04/19 12:18:00;;;;;;;7.60;4.30;;;12.20;1.00;;;;;;4996716;28;20202;-95
2023/04/19 12:20:32;;;;;;;8.97;4.37;;;12.10;1.00;;;;;;4998677;28;20207;-95
2023/04/19 12:22:59;;;;;;;6.77;3.80;;;12.00;1.00;;;;;;4995415;28;20207;-96
2023/04/19 12:25:28;;;;;;;7.20;5.03;;;11.90;1.00;;;;;;4995754;28;20228;-95
2023/04/19 12:27:57;;;;;;;9.10;5.23;;;11.70;1.00;;;;;;4995319;28;20202;-96
2023/04/19 12:30:24;;;;;;;8.87;4.57;;;11.40;1.00;;;;;;4995863;28;20198;-96
2023/04/19 12:32:54;;;;;;;8.83;6.00;;;11.10;1.00;;;;;;4996002;28;20196;-96
2023/04/19 12:35:21;;;;;;;8.57;5.67;;;10.80;99.90;;;;;;4997175;28;20199;-95
2023/04/19 12:37:47;;;;;;;11.47;6.57;;;10.60;99.90;;;;;;4995516;28;20284;-94
2023/04/19 12:40:15;;;;;;;11.47;7.33;;;10.40;1.00;;;;;;4995906;28;20195;-96
2023/04/19 12:42:42;;;;;;;11.20;6.23;;;10.30;1.00;;;;;;4995375;28;20286;-96
2023/04/19 12:45:12;;;;;;;7.60;4.90;;;10.20;1.00;;;;;;4995231;28;20630;-95
2023/04/19 12:47:39;;;;;;;12.07;5.00;;;10.20;1.00;;;;;;4976222;28;20285;-96
2023/04/19 12:50:08;;;;;;;10.20;4.17;;;10.10;1.00;;;;;;4976189;28;20316;-94
2023/04/19 12:52:35;;;;;;;8.07;4.20;;;10.10;99.90;;;;;;4976196;28;20291;-96
2023/04/19 12:55:02;;;;;;;9.67;4.13;;;10.20;99.90;;;;;;4976284;28;20201;-96
2023/04/19 12:57:29;;;;;;;8.93;4.47;;;10.20;1.00;;;;;;4976164;28;20296;-96
2023/04/19 12:59:56;;;;;;;9.37;4.40;;;10.10;46.50;;;;;;4976610;28;20201;-96
2023/04/19 13:02:24;;;;;;;11.37;5.00;;;10.20;99.90;;;;;;4976043;28;20645;-95
2023/04/19 13:04:51;;;;;;;9.13;4.60;;;10.10;99.90;;;;;;4993687;28;20201;-94
2023/04/19 13:07:18;;;;;;;6.37;4.20;;;10.10;99.90;;;;;;4995140;28;20283;-95
2023/04/19 13:09:45;;;;;;;9.97;4.60;;;10.10;1.00;;;;;;4995953;28;20220;-96
2023/04/19 13:12:12;;;;;;;7.23;4.30;;;10.20;1.00;;;;;;4994907;28;20675;-96
2023/04/19 13:14:38;;;;;;;12.40;7.07;;;10.20;1.00;;;;;;4995222;28;20236;-94
2023/04/19 13:17:05;;;;;;;9.23;6.40;;;10.30;1.00;;;;;;4995453;28;20201;-96
2023/04/19 13:19:33;;;;;;;12.47;6.27;;;10.40;1.00;;;;;;4995527;28;20228;-94
2023/04/19 13:22:00;;;;;;;9.07;5.00;;;10.40;1.00;;;;;;4994960;28;20665;-96
2023/04/19 13:24:27;;;;;;;9.33;5.10;;;10.40;1.00;;;;;;4995144;28;20208;-95
2023/04/19 13:26:54;;;;;;;6.43;4.80;;;10.30;1.00;;;;;;4992818;28;20210;-95
2023/04/19 13:41:32;;;;;;;10.10;5.53;;;10.20;1.00;;;;;;5116892;27;20581;-94
2023/04/19 13:43:59;;;;;;;8.83;4.93;;;10.50;99.90;;;;;;5132993;27;20245;-95
2023/04/19 13:46:26;;;;;;;7.37;5.10;;;10.50;99.90;;;;;;5132540;27;20631;-96
2023/04/19 13:48:53;;;;;;;7.27;4.70;;;10.40;99.90;;;;;;5132630;27;20201;-95
2023/04/19 13:51:20;;;;;;;9.23;4.60;;;10.40;87.40;;;;;;5127239;27;20707;-95
2023/04/19 13:53:47;;;;;;;7.90;5.30;;;10.40;99.90;;;;;;5111612;28;20258;-96
2023/04/19 13:56:14;;;;;;;7.33;5.37;;;10.30;99.90;;;;;;5111632;28;20723;-96
2023/04/19 13:58:42;;;;;;;8.10;4.70;;;10.30;99.90;;;;;;5111724;28;20200;-95
2023/04/19 14:01:09;;;;;;;12.10;5.17;;;10.30;99.90;;;;;;5129889;28;20194;-96
2023/04/19 14:03:36;;;;;;;6.90;5.80;;;10.30;99.90;;;;;;5132314;27;20203;-95
2023/04/19 14:06:03;;;;;;;7.97;5.40;;;10.30;99.90;;;;;;5132131;27;20246;-96
2023/04/19 14:08:30;;;;;;;7.23;4.90;;;10.40;99.90;;;;;;5132425;27;20540;-96
2023/04/19 14:10:57;;;;;;;8.80;5.43;;;10.50;99.90;;;;;;5132388;27;20211;-95
2023/04/19 14:13:24;;;;;;;8.67;5.03;;;10.50;99.90;;;;;;5112921;27;20196;-96
2023/04/19 14:15:53;;;;;;;7.90;5.43;;;10.50;99.90;;;;;;5111380;28;20196;-95
2023/04/19 14:18:20;;;;;;;8.20;5.47;;;10.40;99.90;;;;;;5111318;28;20197;-95
2023/04/19 14:20:47;;;;;;;7.13;5.20;;;10.40;99.90;;;;;;5111846;28;20202;-94
2023/04/19 14:23:14;;;;;;;6.93;5.33;;;10.30;99.90;;;;;;5110037;28;20196;-95
2023/04/19 14:25:41;;;;;;;10.40;5.43;;;10.30;99.90;;;;;;5110427;28;20189;-96
2023/04/19 14:28:08;;;;;;;11.27;6.10;;;10.20;1.00;;;;;;5111285;28;20196;-96
2023/04/19 14:30:35;;;;;;;8.00;5.63;;;10.20;1.00;;;;;;5110640;28;20259;-96
2023/04/19 14:33:03;;;;;;;11.10;6.60;;;10.10;1.00;;;;;;5111389;28;20199;-96
2023/04/19 14:35:31;;;;;;;10.23;5.27;;;10.10;1.00;;;;;;5110939;28;20218;-96
2023/04/19 14:37:58;;;;;;;11.00;6.37;;;10.00;1.00;;;;;;5095618;28;20205;-96
2023/04/19 14:40:25;;;;;;;9.47;6.17;;;10.00;1.00;;;;;;5096426;28;20249;-95
2023/04/19 14:42:52;;;;;;;11.77;6.00;;;10.00;1.00;;;;;;5096872;28;21049;-95
2023/04/19 14:45:19;;;;;;;8.00;5.63;;;10.00;27.50;;;;;;5097395;28;20284;-95
2023/04/19 14:47:46;;;;;;;9.23;5.70;;;9.90;99.90;;;;;;5097312;28;20688;-93
2023/04/19 14:50:14;;;;;;;10.17;5.37;;;9.90;99.90;;;;;;5096291;28;20566;-95
2023/04/19 14:52:41;;;;;;;10.30;6.13;;;9.90;99.90;;;;;;5097445;28;20204;-95
2023/04/19 14:55:09;;;;;;;8.83;5.70;;;9.90;99.90;;;;;;5082732;28;20192;-94
2023/04/19 14:57:36;;;;;;;9.13;5.90;;;10.00;1.00;;;;;;5096559;28;20203;-95
2023/04/19 15:00:05;;;;;;;9.83;5.80;;;10.10;1.00;;;;;;5096893;28;20722;-96
2023/04/19 15:02:32;;;;;;;6.63;4.50;;;10.10;99.90;;;;;;5100811;28;20226;-96
2023/04/19 15:04:59;;;;;;;7.57;5.33;;;9.90;99.90;;;;;;5104570;28;20202;-96
2023/04/19 15:07:27;;;;;;;8.07;5.43;;;9.80;1.00;;;;;;5100859;28;20260;-96
2023/04/19 15:09:54;;;;;;;9.10;5.23;;;9.70;1.00;;;;;;5101845;28;20287;-96
2023/04/19 15:12:21;;;;;;;8.70;5.40;;;9.60;1.00;;;;;;5098623;28;20194;-95
2023/04/19 15:14:48;;;;;;;6.73;5.00;;;9.50;1.00;;;;;;5101029;28;20219;-95
2023/04/19 15:17:15;;;;;;;6.53;4.73;;;9.50;1.00;;;;;;5097053;28;20214;-96
2023/04/19 15:19:43;;;;;;;5.97;4.53;;;9.40;1.00;;;;;;5083647;28;20206;-96
2023/04/19 15:22:10;;;;;;;5.37;4.53;;;9.40;1.00;;;;;;5087397;28;20206;-96
2023/04/19 15:24:38;;;;;;;8.10;4.93;;;9.40;1.00;;;;;;5091607;28;20183;-96
2023/04/19 15:27:05;;;;;;;5.30;4.60;;;9.30;1.00;;;;;;5090933;28;20191;-96
2023/04/19 15:29:32;;;;;;;5.70;4.60;;;9.30;1.00;;;;;;5110624;28;20218;-96
2023/04/19 15:32:01;;;;;;;6.87;5.00;;;9.30;36.90;;;;;;5112297;28;20204;-95
2023/04/19 15:34:28;;;;;;;8.07;4.90;;;9.30;57.80;;;;;;5109532;28;20196;-96
2023/04/19 15:36:56;;;;;;;5.77;4.40;;;9.30;20.80;;;;;;5105099;28;20648;-95
2023/04/19 15:39:36;;;;;;;6.20;4.43;;;9.20;99.90;;;;;;5107651;28;20209;-96
2023/04/19 15:42:05;;;;;;;7.30;4.97;;;9.20;99.90;;;;;;5108338;28;20196;-95
2023/04/19 15:44:37;;;;;;;7.87;4.70;;;9.10;99.90;;;;;;5109461;28;20191;-96
2023/04/19 15:47:05;;;;;;;6.40;4.97;;;9.10;99.90;;;;;;5102189;28;20201;-96
2023/04/19 15:49:33;;;;;;;7.13;4.87;;;9.20;1.00;;;;;;5124375;28;20268;-96
2023/04/19 15:52:00;;;;;;;5.77;4.50;;;9.40;1.00;;;;;;5123930;28;20251;-96
2023/04/19 15:54:28;;;;;;;5.43;4.40;;;9.70;99.90;;;;;;5272299;22;20211;-92
2023/04/19 16:02:07;;;;;;;7.33;4.80;;;9.40;1.00;;;;;;5210303;22;20261;-96
2023/04/19 16:04:34;;;;;;;7.10;5.37;;;9.30;12.40;;;;;;5250424;22;20228;-95
2023/04/19 16:07:01;;;;;;;6.43;4.60;;;9.10;99.90;;;;;;5098547;28;20200;-94
2023/04/19 16:09:28;;;;;;;7.03;4.87;;;8.90;99.90;;;;;;5088738;28;20203;-94
2023/04/19 16:11:55;;;;;;;6.93;4.53;;;8.80;99.90;;;;;;5063147;28;20196;-94
2023/04/19 16:14:23;;;;;;;5.87;4.80;;;8.80;1.00;;;;;;5077390;28;20194;-96
2023/04/19 16:16:52;;;;;;;5.67;4.60;;;8.80;1.00;;;;;;5098645;28;20659;-95
2023/04/19 16:19:21;;;;;;;6.67;4.87;;;9.00;1.00;;;;;;5077631;28;20678;-96
2023/04/19 16:21:49;;;;;;;6.17;4.87;;;9.10;1.00;;;;;;5065469;28;20208;-95
2023/04/19 16:37:08;;;;;;;7.57;5.10;;;8.40;1.00;;;;;;5305354;22;20213;-96
2023/04/19 16:39:35;;;;;;;6.87;5.13;;;8.30;1.00;;;;;;5634330;22;20219;-89
2023/04/19 16:44:37;;;;;;;6.73;5.60;;;8.20;1.00;;;;;;5147616;22;20221;-96
2023/04/19 16:49:40;;;;;;;7.53;5.70;;;8.10;1.00;;;;;;5232912;22;20222;-95
2023/04/19 16:54:34;;;;;;;8.37;6.07;;;8.10;1.00;;;;;;5105131;22;20292;-96
2023/04/19 16:57:02;;;;;;;11.53;6.30;;;8.10;1.00;;;;;;5053929;28;20192;-96
2023/04/19 16:59:29;;;;;;;8.57;6.30;;;8.10;1.00;;;;;;5280718;22;20211;-94
2023/04/19 17:01:57;;;;;;;9.77;6.30;;;8.10;1.00;;;;;;5499799;22;20507;-95
2023/04/19 17:04:24;;;;;;;8.50;6.80;;;8.10;1.00;;;;;;5133973;28;20157;-96
2023/04/19 17:06:51;;;;;;;8.17;6.00;;;8.20;1.00;;;;;;5135787;28;20265;-96
2023/04/19 17:09:18;;;;;;;8.77;6.63;;;8.20;1.00;;;;;;5145560;27;20191;-95
2023/04/19 17:11:47;;;;;;;9.30;6.67;;;8.20;1.00;;;;;;5152611;27;20556;-96
2023/04/19 17:14:14;;;;;;;9.53;6.97;;;8.20;1.00;;;;;;5124845;27;20188;-96
2023/04/19 17:16:41;;;;;;;9.10;6.23;;;8.10;1.00;;;;;;5128055;28;20200;-96
2023/04/19 17:19:08;;;;;;;8.57;5.97;;;8.10;1.00;;;;;;5128385;28;20636;-96
2023/04/19 17:21:35;;;;;;;9.50;6.70;;;8.10;1.00;;;;;;5130158;28;20194;-96
2023/04/19 17:24:02;;;;;;;9.27;6.53;;;8.10;1.00;;;;;;5129728;28;20195;-96
2023/04/19 17:26:30;;;;;;;9.80;6.40;;;8.00;1.00;;;;;;5236561;22;20229;-94
2023/04/19 17:28:58;;;;;;;9.23;7.20;;;8.00;1.00;;;;;;5083969;28;20185;-95
2023/04/19 17:31:25;;;;;;;8.43;6.53;;;8.00;1.00;;;;;;5073668;28;20340;-95
2023/04/19 17:33:52;;;;;;;9.93;6.83;;;7.90;1.00;;;;;;5075687;28;20190;-96
2023/04/19 17:36:19;;;;;;;10.77;7.70;;;7.90;1.00;;;;;;5083188;28;20200;-93
2023/04/19 17:38:47;;;;;;;14.17;7.87;;;7.90;1.00;;;;;;5078595;28;20191;-94
2023/04/19 17:41:15;;;;;;;11.20;8.17;;;7.90;1.00;;;;;;5094546;28;20196;-96
2023/04/19 17:43:42;;;;;;;11.13;7.13;;;7.90;1.00;;;;;;5075648;28;20206;-93
2023/04/19 17:46:12;;;;;;;10.33;7.87;;;7.80;1.00;;;;;;5082307;28;20257;-94
2023/04/19 17:48:39;;;;;;;10.90;7.33;;;7.80;1.00;;;;;;5073648;28;20716;-93
2023/04/19 17:51:06;;;;;;;12.43;8.20;;;7.80;5.00;;;;;;5073725;28;20217;-94
2023/04/19 17:53:33;;;;;;;9.73;7.77;;;7.80;64.70;;;;;;5077807;28;20261;-94
2023/04/19 17:56:00;;;;;;;9.90;7.73;;;7.70;90.00;;;;;;5094451;28;20234;-94
2023/04/19 17:58:27;;;;;;;10.37;7.83;;;7.70;99.90;;;;;;5080493;28;20250;-94
2023/04/19 18:00:54;;;;;;;9.67;7.63;;;7.70;99.90;;;;;;5073601;28;20216;-92
2023/04/19 18:03:23;;;;;;;10.57;8.07;;;7.70;99.90;;;;;;5073612;28;20255;-95
2023/04/19 18:05:50;;;;;;;13.10;8.53;;;7.60;99.90;;;;;;5078741;28;20192;-94
2023/04/19 18:08:17;;;;;;;12.13;8.60;;;7.60;99.90;;;;;;5081800;28;20197;-95
2023/04/19 18:10:44;;;;;;;12.77;8.57;;;7.60;99.90;;;;;;5094118;28;20261;-95
2023/04/19 18:13:11;;;;;;;12.07;8.60;;;7.50;99.90;;;;;;5085302;28;20654;-96
2023/04/19 18:15:38;;;;;;;13.07;8.93;;;7.40;99.90;;;;;;5076207;28;20205;-95
2023/04/19 18:18:05;;;;;;;12.50;9.33;;;7.40;99.90;;;;;;5071984;28;20201;-96
2023/04/19 18:20:33;;;;;;;14.73;9.20;;;7.40;1.00;;;;;;5087503;28;20188;-96
2023/04/19 18:23:00;;;;;;;12.17;9.27;;;7.30;1.00;;;;;;5082783;28;20228;-95
2023/04/19 18:25:28;;;;;;;13.40;8.87;;;7.30;1.00;;;;;;5093651;28;20196;-96
2023/04/19 18:27:55;;;;;;;13.20;9.00;;;7.30;1.00;;;;;;5099128;28;20207;-96
2023/04/19 18:30:22;;;;;;;11.27;8.97;;;7.30;1.00;;;;;;5098193;28;20265;-95
2023/04/19 18:32:49;;;;;;;13.10;9.27;;;7.30;1.00;;;;;;5097563;28;20188;-96
2023/04/19 18:35:16;;;;;;;14.17;9.77;;;7.30;1.00;;;;;;5088044;28;20250;-95
2023/04/19 18:37:47;;;;;;;12.80;9.03;;;7.20;1.00;;;;;;5093107;28;20179;-96
2023/04/19 18:42:45;;;;;;;11.47;7.83;;;7.20;1.00;;;;;;5776532;22;20200;-96
2023/04/19 18:45:13;;;;;;;13.77;9.43;;;7.20;1.00;;;;;;5429105;22;20245;-94
2023/04/19 18:47:40;;;;;;;13.00;8.87;;;7.20;1.00;;;;;;5390860;22;20195;-94
2023/04/19 18:52:44;;;;;;;15.37;9.33;;;7.20;1.00;;;;;;5431176;22;20226;-96
2023/04/19 18:55:12;;;;;;;12.80;9.10;;;7.20;28.20;;;;;;5594669;22;20230;-96
2023/04/19 18:57:39;;;;;;;12.53;9.00;;;7.20;3.40;;;;;;5137630;28;20208;-96